Sony PlayStation 4

Page 
 of 51
Records 1 to 50 of 2540
  
ID
Release
Released
Files
Size
DAT
Group
2588 STEINS.GATE.ELITE.PS4-DUPLEX 2020-08-08 0 0 B PS4 Scene 2020 DUPLEX
2587 Roman_Rumble_Lost_in_Las_Vegum_Asterix_and_Obelix_XXL_2_UPDATE_v1.02_PS4-Playable 2020-08-07 0 0 B PS4 Scene 2020 Playable
2586 Roman_Rumble_Lost_in_Las_Vegum_Asterix_and_Obelix_XXL_2_PS4-Playable 2020-08-07 0 0 B PS4 Scene 2020 Playable
2585 Zanki.Zero.Last.Beginning.Update.v1.03.PS4-DUPLEX 2020-08-07 0 0 B PS4 Scene 2020 DUPLEX
2584 We.Happy.Few.Update.v1.08.PS4-DUPLEX 2020-08-07 0 0 B PS4 Scene 2020 DUPLEX
2583 Death_end_re_Quest_PS4-Playable 2020-08-07 0 0 B PS4 Scene 2020 Playable
2582 Vambrace_Cold_Soul_PS4-HR 2020-08-07 0 0 B PS4 Scene 2020 HR
2581 LEFT_ALIVE_Update_v1.03_JPN_PS4-HR 2020-08-07 0 0 B PS4 Scene 2020 HR
2580 LEFT_ALIVE_JPN_PS4-HR 2020-08-07 0 0 B PS4 Scene 2020 HR
2579 Zanki.Zero.Last.Beginning.PS4-DUPLEX 2020-08-07 0 0 B PS4 Scene 2020 DUPLEX
2578 This.Is.the.Police.2.PS4-DUPLEX 2020-08-07 0 0 B PS4 Scene 2020 DUPLEX
2577 Space.Hulk.Tactics.PS4-DUPLEX 2020-08-06 0 0 B PS4 Scene 2020 DUPLEX
2576 State.of.Mind.Update.v1.03.PS4-DUPLEX 2020-08-06 0 0 B PS4 Scene 2020 DUPLEX
2575 We.Happy.Few.PS4-DUPLEX 2020-08-06 0 0 B PS4 Scene 2020 DUPLEX
2574 State.of.Mind.PS4-DUPLEX 2020-08-06 0 0 B PS4 Scene 2020 DUPLEX
2573 DEAD_OR_ALIVE_Xtreme_3_Scarlet_Update_v1.08_PS4-HR 2020-08-06 8 245.17 MiB PS4 Scene 2020 HR
2572 DEAD_OR_ALIVE_Xtreme_3_Scarlet_PS4-HR 2020-08-06 82 18.18 GiB PS4 Scene 2020 HR
2571 Sudden_Strike_4_Complete_Edition_PS4-Playable 2020-08-06 85 7.72 GiB PS4 Scene 2020 Playable
2570 Sonic_Mania_PS4-Playable 2020-08-06 6 184.21 MiB PS4 Scene 2020 Playable
2569 Pure.Farming.2018.Update.v1.12.PS4-DUPLEX 2020-08-06 53 2.37 GiB PS4 Scene 2020 DUPLEX
2568 Pure.Farming.2018.PS4-DUPLEX 2020-08-06 50 2.21 GiB PS4 Scene 2020 DUPLEX
2567 Hotel.Transylvania.3.Monsters.Overboard.Update.v1.01.PS4-DUPLEX 2020-08-06 16 199.3 MiB PS4 Scene 2020 DUPLEX
2566 Hotel.Transylvania.3.Monsters.Overboard.PS4-DUPLEX 2020-08-06 40 1.73 GiB PS4 Scene 2020 DUPLEX
2565 The.Spectrum.Retreat.Update.v1.01.PS4-DUPLEX 2020-08-06 63 2.84 GiB PS4 Scene 2020 DUPLEX
2564 The.Spectrum.Retreat.PS4-DUPLEX 2020-08-06 69 3.11 GiB PS4 Scene 2020 DUPLEX
2563 The.Golf.Club.2019.Update.v1.04.PS4-DUPLEX 2020-08-06 55 4.87 GiB PS4 Scene 2020 DUPLEX
2562 The.Golf.Club.2019.PS4-DUPLEX 2020-08-06 54 4.82 GiB PS4 Scene 2020 DUPLEX
2561 Adventure.Time.Pirates.of.the.Enchiridion.Update.v1.05.PS4-DUPLEX 2020-08-06 20 828.88 MiB PS4 Scene 2020 DUPLEX
2560 Adventure.Time.Pirates.of.the.Enchiridion.PS4-DUPLEX 2020-08-06 20 811.01 MiB PS4 Scene 2020 DUPLEX
2559 TRON.RUNr.Update.v1.05.PS4-DUPLEX 2020-08-06 78 7.02 GiB PS4 Scene 2020 DUPLEX
2558 TRON.RUNr.PS4-DUPLEX 2020-08-06 100 4.53 GiB PS4 Scene 2020 DUPLEX
2557 100ft.Robot.Golf.Update.v1.05.PS4-DUPLEX 2020-08-06 53 2.33 GiB PS4 Scene 2020 DUPLEX
2556 100ft.Robot.Golf.PS4-DUPLEX 2020-08-06 85 3.85 GiB PS4 Scene 2020 DUPLEX
2555 Overlord.Fellowship.of.Evil.PS4-DUPLEX 2020-08-06 60 2.66 GiB PS4 Scene 2020 DUPLEX
2554 NASCAR.Heat.4.Update.v1.04.PS4-DUPLEX 2020-08-06 47 2.07 GiB PS4 Scene 2020 DUPLEX
2553 NASCAR.Heat.4.PS4-DUPLEX 2020-08-06 76 13.69 GiB PS4 Scene 2020 DUPLEX
2552 NASCAR.Heat.3.Update.v1.18.PS4-DUPLEX 2020-08-06 88 3.97 GiB PS4 Scene 2020 DUPLEX
2551 NASCAR.Heat.3.PS4-DUPLEX 2020-08-06 81 14.67 GiB PS4 Scene 2020 DUPLEX
2550 Shiness.The.Lightning.Kingdom.Update.v1.03.PS4-DUPLEX 2020-08-06 60 5.39 GiB PS4 Scene 2020 DUPLEX
2549 Shiness.The.Lightning.Kingdom.PS4-DUPLEX 2020-08-06 74 10.04 GiB PS4 Scene 2020 DUPLEX
2548 11-11.Memories.Retold.Update.v1.01.PS4-DUPLEX 2020-08-06 98 4.44 GiB PS4 Scene 2020 DUPLEX
2547 11-11.Memories.Retold.PS4-DUPLEX 2020-08-06 99 4.52 GiB PS4 Scene 2020 DUPLEX
2546 Farming.Simulator.19.Update.v1.10.PS4-DUPLEX 2020-08-06 58 2.58 GiB PS4 Scene 2020 DUPLEX
2545 Farming.Simulator.19.PS4-DUPLEX 2020-08-06 58 5.2 GiB PS4 Scene 2020 DUPLEX
2544 Malicious.Fallen.Update.v1.04.PS4-DUPLEX 2020-08-06 21 266.36 MiB PS4 Scene 2020 DUPLEX
2543 Malicious.Fallen.PS4-DUPLEX 2020-08-06 76 10.22 GiB PS4 Scene 2020 DUPLEX
2542 WARRIORS.OROCHI.4.Update.v1.06.PS4-DUPLEX 2020-08-06 40 529.45 MiB PS4 Scene 2020 DUPLEX
2541 WARRIORS.OROCHI.4.PS4-DUPLEX 2020-08-06 90 16.23 GiB PS4 Scene 2020 DUPLEX
2540 Monster.Jam.Steel.Titans.Update.v1.20.PS4-DUPLEX 2020-08-06 73 6.55 GiB PS4 Scene 2020 DUPLEX
2539 Monster.Jam.Steel.Titans.PS4-DUPLEX 2020-08-05 77 6.82 GiB PS4 Scene 2020 DUPLEX